Time;durP1;ratioP1;P1;durP2;ratioP2;P2;SDS_P1;SDS_P2;PMS_P1;PMS_P2;Temp;Humidity;BMP_temperature;BMP_pressure;BME280_temperature;BME280_humidity;BME280_pressure;Samples;Min_cycle;Max_cycle;Signal;HPM_P1;HPM_P2
2021/07/26 00:01:28;;;;;;;2.97;2.22;;;;;;;19.52;nan;99942.75;4958415;28;20039;-74
2021/07/26 00:03:53;;;;;;;3.17;2.58;;;;;;;19.51;nan;99949.97;4970009;28;20326;-74
2021/07/26 00:06:18;;;;;;;4.40;3.15;;;;;;;19.49;nan;99953.94;4969925;28;20089;-76
2021/07/26 00:08:43;;;;;;;3.88;3.00;;;;;;;19.46;nan;99949.84;4959148;28;20036;-74
2021/07/26 00:11:10;;;;;;;4.32;2.83;;;;;;;19.43;nan;99947.59;4963518;28;20050;-74
2021/07/26 00:13:36;;;;;;;4.35;2.58;;;;;;;19.43;nan;99947.59;4966850;28;20582;-74
2021/07/26 00:16:03;;;;;;;3.05;2.47;;;;;;;19.43;nan;99949.47;4967359;28;20081;-74
2021/07/26 00:18:28;;;;;;;3.28;2.40;;;;;;;19.41;nan;99948.88;4955898;28;20042;-74
2021/07/26 00:20:58;;;;;;;3.78;2.63;;;;;;;19.39;nan;99953.63;4969621;28;20039;-74
2021/07/26 00:23:24;;;;;;;3.95;3.00;;;;;;;19.33;nan;99949.16;4960826;28;20574;-74
2021/07/26 00:25:49;;;;;;;3.50;2.92;;;;;;;19.27;nan;99951.69;4964374;28;20126;-74
2021/07/26 00:28:15;;;;;;;3.63;2.70;;;;;;;19.25;nan;99945.72;4961088;28;20182;-74
2021/07/26 00:30:41;;;;;;;3.88;3.17;;;;;;;19.21;nan;99951.75;4967889;28;20119;-74
2021/07/26 00:33:59;;;;;;;3.78;3.00;;;;;;;19.17;nan;99943.34;4971115;28;20042;-74
2021/07/26 00:36:24;;;;;;;3.25;2.42;;;;;;;19.19;nan;99951.19;4958909;28;20043;-74
2021/07/26 00:38:50;;;;;;;3.22;2.50;;;;;;;19.17;nan;99948.72;4967834;28;20579;-74
2021/07/26 00:41:16;;;;;;;3.47;2.38;;;;;;;19.24;nan;99951.34;4964332;28;20039;-74
2021/07/26 00:43:42;;;;;;;2.67;2.15;;;;;;;19.30;nan;99947.75;4964764;28;20118;-74
2021/07/26 00:46:07;;;;;;;2.70;2.30;;;;;;;19.35;nan;99945.22;4975772;28;20395;-74
2021/07/26 00:48:32;;;;;;;4.63;2.67;;;;;;;19.30;nan;99937.84;4968637;28;20030;-74
2021/07/26 00:50:58;;;;;;;3.20;2.50;;;;;;;19.26;nan;99928.63;4957585;28;20042;-74
2021/07/26 00:53:23;;;;;;;2.65;2.28;;;;;;;19.25;nan;99934.19;4965952;28;20094;-74
2021/07/26 00:55:49;;;;;;;2.78;2.40;;;;;;;19.29;nan;99940.75;4966252;28;20061;-75
2021/07/26 00:58:14;;;;;;;2.92;2.30;;;;;;;19.32;nan;99945.66;4967499;28;20063;-74
2021/07/26 01:00:40;;;;;;;2.97;2.40;;;;;;;19.31;nan;99941.34;4963832;28;20529;-74
2021/07/26 01:03:05;;;;;;;4.43;2.80;;;;;;;19.24;nan;99938.75;4968797;28;20035;-74
2021/07/26 01:05:31;;;;;;;3.63;2.72;;;;;;;19.21;nan;99941.03;4965853;28;20094;-75
2021/07/26 01:07:56;;;;;;;3.50;3.00;;;;;;;19.17;nan;99937.19;4969766;28;20041;-74
2021/07/26 01:10:21;;;;;;;3.55;2.78;;;;;;;19.12;nan;99942.41;4961302;28;20070;-74
2021/07/26 01:12:47;;;;;;;3.60;2.60;;;;;;;19.07;nan;99938.53;4967904;28;20046;-74
2021/07/26 01:15:12;;;;;;;3.90;3.00;;;;;;;19.06;nan;99936.03;4969101;28;20336;-74
2021/07/26 01:18:09;;;;;;;3.55;2.95;;;;;;;19.00;nan;99945.00;4965158;28;20547;-74
2021/07/26 01:20:35;;;;;;;3.80;3.05;;;;;;;18.94;nan;99941.31;4969078;28;20045;-74
2021/07/26 01:23:00;;;;;;;3.97;3.13;;;;;;;18.89;nan;99954.56;4965646;28;20043;-74
2021/07/26 01:25:25;;;;;;;3.95;2.63;;;;;;;18.90;nan;99953.50;4966393;28;20097;-75
2021/07/26 01:27:50;;;;;;;4.15;3.08;;;;;;;18.91;nan;99949.81;4965887;28;20030;-74
2021/07/26 01:30:16;;;;;;;4.07;3.25;;;;;;;18.98;nan;99947.06;4958142;28;20070;-75
2021/07/26 01:32:41;;;;;;;5.15;3.28;;;;;;;19.08;nan;99950.88;4969333;28;20174;-74
2021/07/26 01:35:07;;;;;;;4.05;2.85;;;;;;;19.15;nan;99952.66;4963967;28;20061;-74
2021/07/26 01:37:32;;;;;;;4.78;3.50;;;;;;;19.20;nan;99955.50;4967770;28;20038;-74
2021/07/26 01:39:57;;;;;;;3.95;2.85;;;;;;;19.19;nan;99957.38;4970603;28;20047;-74
2021/07/26 01:42:23;;;;;;;3.45;2.78;;;;;;;19.26;nan;99970.69;4962829;28;20038;-74
2021/07/26 01:44:48;;;;;;;4.45;2.92;;;;;;;19.32;nan;99959.06;4957616;28;20569;-74
2021/07/26 01:47:16;;;;;;;3.55;2.75;;;;;;;19.28;nan;99966.75;4962463;28;20034;-74
2021/07/26 01:50:06;;;;;;;4.18;3.08;;;;;;;19.32;nan;99964.44;4964923;28;20058;-75
2021/07/26 01:52:32;;;;;;;4.53;2.97;;;;;;;19.33;nan;99960.72;4962155;28;20039;-74
2021/07/26 01:54:57;;;;;;;3.92;3.15;;;;;;;19.38;nan;99960.03;4968351;28;20064;-74
2021/07/26 01:57:23;;;;;;;4.95;3.45;;;;;;;19.42;nan;99964.72;4963103;28;20090;-74
2021/07/26 01:59:48;;;;;;;6.78;3.47;;;;;;;19.41;nan;99964.97;4966456;28;20039;-74
2021/07/26 02:02:13;;;;;;;3.60;2.70;;;;;;;19.41;nan;99962.28;4962919;28;20035;-74
2021/07/26 02:04:39;;;;;;;5.93;3.08;;;;;;;19.45;nan;99961.63;4964631;28;20456;-74
2021/07/26 02:07:07;;;;;;;4.80;3.20;;;;;;;19.43;nan;99962.88;4965570;28;20054;-75
2021/07/26 02:09:35;;;;;;;5.45;3.30;;;;;;;19.49;nan;99957.41;4955368;28;20405;-74
2021/07/26 02:12:02;;;;;;;4.63;3.58;;;;;;;19.51;nan;99970.63;4964332;28;20542;-74
2021/07/26 02:14:27;;;;;;;4.35;3.15;;;;;;;19.47;nan;99964.91;4967333;28;20043;-74
2021/07/26 02:16:53;;;;;;;4.57;3.10;;;;;;;19.45;nan;99968.81;4969119;28;20062;-74
2021/07/26 02:19:19;;;;;;;4.75;3.10;;;;;;;19.42;nan;99964.72;4962662;28;20047;-74
2021/07/26 02:21:45;;;;;;;4.10;2.85;;;;;;;19.47;nan;99964.06;4967458;28;20027;-74
2021/07/26 02:24:10;;;;;;;4.25;3.17;;;;;;;19.46;nan;99968.59;4962192;28;20133;-74
2021/07/26 02:26:35;;;;;;;3.30;2.67;;;;;;;19.42;nan;99969.28;4967446;28;20079;-74
2021/07/26 02:29:01;;;;;;;4.22;3.08;;;;;;;19.43;nan;99968.25;4959862;28;20074;-74
2021/07/26 02:31:26;;;;;;;4.15;3.10;;;;;;;19.44;nan;99975.25;4959162;28;20039;-74
2021/07/26 02:33:51;;;;;;;3.83;2.67;;;;;;;19.41;nan;99971.13;4968617;28;20035;-74
2021/07/26 02:36:17;;;;;;;3.92;2.85;;;;;;;19.46;nan;99967.78;4966045;28;20030;-74
2021/07/26 02:38:42;;;;;;;5.07;3.38;;;;;;;19.48;nan;99974.56;4962083;28;20384;-74
2021/07/26 02:41:09;;;;;;;4.72;3.10;;;;;;;19.46;nan;99976.66;4966064;28;20114;-74
2021/07/26 02:43:34;;;;;;;4.05;2.70;;;;;;;19.44;nan;99980.59;4964204;28;20027;-74
2021/07/26 02:46:00;;;;;;;4.38;2.95;;;;;;;19.48;nan;99979.13;4955616;28;20408;-74
2021/07/26 02:48:25;;;;;;;3.85;2.90;;;;;;;19.47;nan;99975.63;4973209;28;20122;-74
2021/07/26 02:50:50;;;;;;;4.07;3.00;;;;;;;19.47;nan;99982.81;4961612;28;20050;-74
2021/07/26 02:53:16;;;;;;;4.88;2.83;;;;;;;19.45;nan;99982.22;4966968;28;20083;-74
2021/07/26 02:55:41;;;;;;;4.18;2.70;;;;;;;19.48;nan;99989.84;4964877;28;20125;-74
2021/07/26 02:58:06;;;;;;;4.18;3.00;;;;;;;19.42;nan;99988.84;4956439;28;20035;-75
2021/07/26 03:00:32;;;;;;;3.33;2.90;;;;;;;19.41;nan;99983.72;4965486;28;20038;-74
2021/07/26 03:02:57;;;;;;;3.70;2.70;;;;;;;19.39;nan;99991.19;4962581;28;20416;-74
2021/07/26 03:05:22;;;;;;;4.63;2.92;;;;;;;19.42;nan;99993.41;4966564;28;20506;-74
2021/07/26 03:07:48;;;;;;;3.60;2.60;;;;;;;19.39;nan;99997.34;4971105;28;20090;-74
2021/07/26 03:10:13;;;;;;;5.47;3.00;;;;;;;19.38;nan;99993.03;4977831;28;20138;-74
2021/07/26 03:12:38;;;;;;;4.75;3.00;;;;;;;19.38;nan;99993.03;4961822;28;20160;-74
2021/07/26 03:15:05;;;;;;;3.72;2.80;;;;;;;19.35;nan;99988.09;4968750;28;20058;-74
2021/07/26 03:17:30;;;;;;;4.10;3.15;;;;;;;19.38;nan;99989.53;4969219;28;20053;-74
2021/07/26 03:19:55;;;;;;;3.70;3.10;;;;;;;19.35;nan;99984.63;4971083;28;20042;-74
2021/07/26 03:22:58;;;;;;;4.90;3.53;;;;;;;19.34;nan;99991.84;4961930;28;20076;-74
2021/07/26 03:25:25;;;;;;;5.22;3.30;;;;;;;19.38;nan;99997.56;4969511;28;20042;-74
2021/07/26 03:27:50;;;;;;;4.32;3.38;;;;;;;19.39;nan;100001.91;4965324;28;19946;-74
2021/07/26 03:30:17;;;;;;;6.18;3.15;;;;;;;19.39;nan;100002.72;4964664;28;20183;-74
2021/07/26 03:32:43;;;;;;;6.00;3.25;;;;;;;19.39;nan;100001.91;4962560;28;20043;-74
2021/07/26 03:35:09;;;;;;;4.13;3.05;;;;;;;19.42;nan;99996.09;4967897;28;20491;-74
2021/07/26 03:37:34;;;;;;;4.35;3.13;;;;;;;19.42;nan;100007.63;4964218;28;20042;-74
2021/07/26 03:40:00;;;;;;;3.88;3.05;;;;;;;19.41;nan;100005.19;4968241;28;20035;-74
2021/07/26 03:42:25;;;;;;;3.90;3.08;;;;;;;19.41;nan;100006.00;4966069;28;20043;-74
2021/07/26 03:44:50;;;;;;;3.60;2.90;;;;;;;19.38;nan;99994.88;4966754;28;20054;-74
2021/07/26 03:47:16;;;;;;;5.03;3.38;;;;;;;19.41;nan;100000.63;4974823;28;20030;-74
2021/07/26 03:49:41;;;;;;;4.78;3.63;;;;;;;19.43;nan;100008.47;4969506;28;20399;-74
2021/07/26 03:52:07;;;;;;;4.93;3.50;;;;;;;19.49;nan;100010.25;4963662;28;20388;-73
2021/07/26 03:54:32;;;;;;;5.95;3.65;;;;;;;19.45;nan;100012.56;4966618;28;20451;-74
2021/07/26 03:56:58;;;;;;;4.80;3.28;;;;;;;19.44;nan;100015.47;4963433;28;20129;-74
2021/07/26 03:59:26;;;;;;;4.40;3.10;;;;;;;19.47;nan;100021.22;4969755;28;20152;-74
2021/07/26 04:01:58;;;;;;;4.53;3.15;;;;;;;19.40;nan;100025.81;4967763;28;20041;-74
2021/07/26 04:04:24;;;;;;;4.35;3.22;;;;;;;19.43;nan;100021.88;4968796;28;20511;-74
2021/07/26 04:06:56;;;;;;;6.10;3.40;;;;;;;19.37;nan;100020.88;4964551;28;20043;-74
2021/07/26 04:09:23;;;;;;;3.90;2.75;;;;;;;19.33;nan;100013.50;4969404;28;20447;-74
2021/07/26 04:11:57;;;;;;;3.80;3.00;;;;;;;19.31;nan;100022.59;4958535;28;20126;-74
2021/07/26 04:14:26;;;;;;;3.88;3.00;;;;;;;19.35;nan;100022.16;4962492;28;20035;-74
2021/07/26 04:16:51;;;;;;;4.55;3.05;;;;;;;19.31;nan;100027.16;4960761;28;20038;-74
2021/07/26 04:19:16;;;;;;;5.63;3.60;;;;;;;19.35;nan;100035.56;4966946;28;20407;-74
2021/07/26 04:21:42;;;;;;;6.47;3.60;;;;;;;19.35;nan;100036.38;4971320;28;20405;-74
2021/07/26 04:24:07;;;;;;;4.90;3.53;;;;;;;19.34;nan;100040.09;4968592;28;20275;-74
2021/07/26 04:26:33;;;;;;;4.15;3.10;;;;;;;19.34;nan;100047.31;4965755;28;20109;-75
2021/07/26 04:29:19;;;;;;;4.78;3.38;;;;;;;19.30;nan;100046.94;4964626;28;20027;-75
2021/07/26 04:31:46;;;;;;;3.72;3.03;;;;;;;19.29;nan;100048.81;4966160;28;20316;-74
2021/07/26 04:34:11;;;;;;;4.53;3.20;;;;;;;19.27;nan;100052.75;4972590;28;20479;-75
2021/07/26 04:36:36;;;;;;;3.38;2.50;;;;;;;19.26;nan;100057.28;4967106;28;20082;-74
2021/07/26 04:39:02;;;;;;;4.35;2.85;;;;;;;19.23;nan;100055.03;4971966;28;20093;-74
2021/07/26 04:41:27;;;;;;;3.65;2.70;;;;;;;19.24;nan;100055.88;4963964;28;20031;-74
2021/07/26 04:43:52;;;;;;;3.75;2.60;;;;;;;19.25;nan;100058.31;4971891;28;20463;-74
2021/07/26 04:46:18;;;;;;;2.88;2.22;;;;;;;19.31;nan;100060.13;4956479;28;20031;-74
2021/07/26 04:48:43;;;;;;;3.30;2.70;;;;;;;19.38;nan;100056.56;4975710;28;20054;-74
2021/07/26 04:51:08;;;;;;;2.80;2.30;;;;;;;19.42;nan;100058.56;4971572;28;20049;-74
2021/07/26 04:53:34;;;;;;;3.50;2.72;;;;;;;19.51;nan;100061.78;4971958;28;20062;-75
2021/07/26 04:56:00;;;;;;;4.63;2.83;;;;;;;19.59;nan;100060.69;4971648;28;20062;-75
2021/07/26 04:58:25;;;;;;;4.20;3.10;;;;;;;19.62;nan;100060.25;4965352;28;20397;-75
2021/07/26 05:00:51;;;;;;;5.07;3.25;;;;;;;19.68;nan;100065.56;4969427;28;20034;-75
2021/07/26 05:03:16;;;;;;;5.57;2.95;;;;;;;19.80;nan;100056.78;4965949;28;20110;-75
2021/07/26 05:05:41;;;;;;;6.82;3.38;;;;;;;19.90;nan;100057.06;4968047;28;20510;-74
2021/07/26 05:08:07;;;;;;;3.33;2.58;;;;;;;19.98;nan;100061.31;4960163;28;20031;-75
2021/07/26 05:10:32;;;;;;;3.95;3.10;;;;;;;20.07;nan;100057.25;4964372;28;20520;-75
2021/07/26 05:12:57;;;;;;;3.22;2.53;;;;;;;20.14;nan;100058.00;4969255;28;20117;-75
2021/07/26 05:15:23;;;;;;;3.70;2.80;;;;;;;20.22;nan;100063.06;4968870;28;20057;-77
2021/07/26 05:17:48;;;;;;;4.13;3.03;;;;;;;20.28;nan;100069.38;4963741;28;20344;-77
2021/07/26 05:20:13;;;;;;;5.15;3.13;;;;;;;20.41;nan;100071.91;4971935;28;20603;-77
2021/07/26 05:22:39;;;;;;;4.40;3.00;;;;;;;20.60;nan;100066.53;4965900;28;20044;-77
2021/07/26 05:25:08;;;;;;;5.13;3.33;;;;;;;20.77;nan;100078.25;4970289;28;20027;-77
2021/07/26 05:27:34;;;;;;;5.55;3.30;;;;;;;20.88;nan;100073.94;4969956;28;20041;-77
2021/07/26 05:29:59;;;;;;;5.18;3.38;;;;;;;21.00;nan;100067.53;4970175;28;20035;-77
2021/07/26 05:32:25;;;;;;;4.03;2.90;;;;;;;21.14;nan;100072.69;4972949;28;20039;-78
2021/07/26 05:34:50;;;;;;;4.47;3.03;;;;;;;21.31;nan;100075.50;4968957;28;20139;-77
2021/07/26 05:37:17;;;;;;;5.25;3.10;;;;;;;21.31;nan;100078.19;4969534;28;20126;-77
2021/07/26 05:39:42;;;;;;;4.60;3.75;;;;;;;21.28;nan;100073.28;4971779;28;20034;-77
2021/07/26 05:42:10;;;;;;;4.20;3.17;;;;;;;21.32;nan;100064.53;4972214;28;20027;-77
2021/07/26 05:44:38;;;;;;;5.07;3.05;;;;;;;21.31;nan;100062.91;4972617;28;20039;-78
2021/07/26 05:47:04;;;;;;;5.13;3.20;;;;;;;21.33;nan;100068.03;4973656;28;20070;-78
2021/07/26 05:49:29;;;;;;;5.10;3.10;;;;;;;21.33;nan;100062.63;4974810;28;20062;-78
2021/07/26 05:51:55;;;;;;;4.57;2.78;;;;;;;21.45;nan;100068.88;4964547;28;20042;-77
2021/07/26 05:54:20;;;;;;;4.65;3.20;;;;;;;21.45;nan;100066.16;4966799;28;20141;-78
2021/07/26 05:56:47;;;;;;;4.07;3.05;;;;;;;21.51;nan;100067.13;4970346;28;20070;-78
2021/07/26 05:59:13;;;;;;;4.20;3.00;;;;;;;21.54;nan;100075.53;4966491;28;20071;-77
2021/07/26 06:01:47;;;;;;;3.15;2.70;;;;;;;21.63;nan;100062.56;4980279;28;20027;-78
2021/07/26 06:04:17;;;;;;;3.88;2.90;;;;;;;21.56;nan;100067.22;4965534;28;20034;-78
2021/07/26 06:06:44;;;;;;;3.42;2.63;;;;;;;21.69;nan;100063.47;4969729;28;20062;-77
2021/07/26 06:09:10;;;;;;;4.00;3.03;;;;;;;21.58;nan;100063.25;4968331;28;20105;-78
2021/07/26 06:11:37;;;;;;;3.53;2.75;;;;;;;21.68;nan;100068.03;4960438;28;20636;-78
2021/07/26 06:14:02;;;;;;;3.63;2.70;;;;;;;21.65;nan;100068.50;4973566;28;20073;-78
2021/07/26 06:16:27;;;;;;;3.58;2.92;;;;;;;21.80;nan;100068.03;4962778;28;20058;-78
2021/07/26 06:18:53;;;;;;;4.82;2.72;;;;;;;21.77;nan;100066.63;4977274;28;20265;-79
2021/07/26 06:21:18;;;;;;;4.20;3.00;;;;;;;21.92;nan;100070.69;4971351;28;20574;-77
2021/07/26 06:23:43;;;;;;;5.32;2.70;;;;;;;21.96;nan;100067.28;4973412;28;20035;-78
2021/07/26 06:26:09;;;;;;;3.65;2.70;;;;;;;22.16;nan;100068.75;4972301;28;20410;-78
2021/07/26 06:28:34;;;;;;;4.13;2.75;;;;;;;22.20;nan;100069.91;4970406;28;20395;-78
2021/07/26 06:31:01;;;;;;;3.67;2.67;;;;;;;22.17;nan;100073.91;4970630;28;20094;-79
2021/07/26 06:33:26;;;;;;;4.18;3.00;;;;;;;22.17;nan;100071.22;4967696;28;20031;-78
2021/07/26 06:35:52;;;;;;;4.35;2.70;;;;;;;22.26;nan;100077.88;4966487;28;20391;-79
2021/07/26 06:38:17;;;;;;;4.07;2.80;;;;;;;22.41;nan;100076.53;4972902;28;20043;-77
2021/07/26 06:40:43;;;;;;;3.70;2.80;;;;;;;22.92;nan;100079.31;4972661;28;20043;-79
2021/07/26 06:43:09;;;;;;;4.28;2.90;;;;;;;23.22;nan;100087.13;4966899;28;20290;-79
2021/07/26 06:45:34;;;;;;;4.43;2.75;;;;;;;23.23;nan;100084.16;4984603;28;20038;-79
2021/07/26 06:47:59;;;;;;;4.72;3.08;;;;;;;23.50;nan;100078.91;4976676;28;20034;-78
2021/07/26 06:50:25;;;;;;;6.03;3.00;;;;;;;23.90;nan;100077.81;4983778;28;20047;-78
2021/07/26 06:52:50;;;;;;;4.50;2.90;;;;;;;24.32;nan;100081.84;4976493;28;20038;-78
2021/07/26 06:55:15;;;;;;;4.32;2.47;;;;;;;24.42;nan;100079.25;4977200;28;20034;-78
2021/07/26 06:57:41;;;;;;;3.65;2.72;;;;;;;24.19;nan;100074.94;4969703;28;20103;-78
2021/07/26 07:00:06;;;;;;;5.93;3.17;;;;;;;24.27;nan;100079.09;4967812;28;20031;-78
2021/07/26 07:02:32;;;;;;;4.18;2.67;;;;;;;24.52;nan;100089.38;4976568;28;20090;-78
2021/07/26 07:04:57;;;;;;;3.45;2.47;;;;;;;25.20;nan;100087.84;4977454;28;20038;-79
2021/07/26 07:07:22;;;;;;;3.67;2.45;;;;;;;25.61;nan;100084.59;4987059;28;20036;-78
2021/07/26 07:09:48;;;;;;;4.32;2.78;;;;;;;25.96;nan;100088.59;4966709;28;20154;-78
2021/07/26 07:12:17;;;;;;;4.25;2.58;;;;;;;26.04;nan;100090.78;4966082;28;20070;-78
2021/07/26 07:14:43;;;;;;;5.22;2.60;;;;;;;25.97;nan;100085.59;4988461;28;20036;-77
2021/07/26 07:17:08;;;;;;;5.80;2.75;;;;;;;25.78;nan;100090.63;4983728;28;20030;-79
2021/07/26 07:19:33;;;;;;;3.92;2.40;;;;;;;25.45;nan;100080.16;4978717;28;20062;-79
2021/07/26 07:21:58;;;;;;;4.32;2.75;;;;;;;25.54;nan;100073.19;4983591;28;20037;-79
2021/07/26 07:24:24;;;;;;;3.75;2.58;;;;;;;26.06;nan;100086.72;4982040;28;20455;-80
2021/07/26 07:26:49;;;;;;;5.90;2.90;;;;;;;26.65;nan;100073.91;4979161;28;20103;-79
2021/07/26 07:29:16;;;;;;;4.10;2.47;;;;;;;27.07;nan;100086.38;4974515;28;20047;-77
2021/07/26 07:31:41;;;;;;;3.75;2.67;;;;;;;27.44;nan;100083.38;4979258;28;20070;-77
2021/07/26 07:34:07;;;;;;;3.80;2.50;;;;;;;27.72;nan;100087.38;4973827;28;20035;-77
2021/07/26 07:36:33;;;;;;;3.03;2.03;;;;;;;28.31;nan;100083.06;4960042;28;20035;-77
2021/07/26 07:38:59;;;;;;;3.22;2.15;;;;;;;28.91;nan;100088.41;4980061;28;20039;-78
2021/07/26 07:41:25;;;;;;;3.50;2.20;;;;;;;28.75;nan;100093.16;4972796;28;20050;-77
2021/07/26 07:43:50;;;;;;;3.08;2.00;;;;;;;29.44;nan;100090.41;4977917;28;20495;-77
2021/07/26 07:46:19;;;;;;;3.65;2.30;;;;;;;29.72;nan;100091.47;4973596;28;20035;-77
2021/07/26 07:48:46;;;;;;;2.50;1.95;;;;;;;30.03;nan;100094.66;4978322;28;20097;-78
2021/07/26 07:51:12;;;;;;;4.88;2.15;;;;;;;30.53;nan;100105.19;4968487;28;20438;-77
2021/07/26 07:53:37;;;;;;;3.50;2.47;;;;;;;30.39;nan;100101.56;4973385;28;20125;-77
2021/07/26 07:56:03;;;;;;;4.07;2.28;;;;;;;29.79;nan;100097.38;4967279;28;20425;-77
2021/07/26 07:58:29;;;;;;;3.42;2.20;;;;;;;28.81;nan;100096.66;4971346;28;20531;-77
2021/07/26 08:00:58;;;;;;;4.10;2.33;;;;;;;28.55;nan;100099.53;4981087;28;20036;-77
2021/07/26 08:03:26;;;;;;;3.92;2.40;;;;;;;28.24;nan;100108.94;4969866;28;20062;-76
2021/07/26 08:05:51;;;;;;;4.40;2.40;;;;;;;28.03;nan;100102.78;4975319;28;20031;-77
2021/07/26 08:08:17;;;;;;;3.85;2.33;;;;;;;28.32;nan;100111.09;4973909;28;20082;-78
2021/07/26 08:10:43;;;;;;;5.03;2.30;;;;;;;29.10;nan;100114.94;4967028;28;20046;-78
2021/07/26 08:13:08;;;;;;;3.25;2.20;;;;;;;29.76;nan;100108.06;4971501;28;20435;-78
2021/07/26 08:15:34;;;;;;;3.38;2.17;;;;;;;30.23;nan;100106.41;4967081;28;20067;-78
2021/07/26 08:17:59;;;;;;;5.00;2.33;;;;;;;30.15;nan;100109.78;4973495;28;20456;-78
2021/07/26 08:20:25;;;;;;;2.60;2.03;;;;;;;30.08;nan;100112.84;4970068;28;20511;-77
2021/07/26 08:22:50;;;;;;;4.68;2.58;;;;;;;30.29;nan;100115.34;4974212;28;20038;-77
2021/07/26 08:25:16;;;;;;;3.40;2.20;;;;;;;30.33;nan;100111.75;4980256;28;20033;-77
2021/07/26 08:27:57;;;;;;;3.20;2.13;;;;;;;30.83;nan;100114.84;4975571;28;20484;-77
2021/07/26 08:30:24;;;;;;;4.13;2.42;;;;;;;31.55;nan;100130.06;4967809;28;20034;-77
2021/07/26 08:32:50;;;;;;;3.65;2.60;;;;;;;31.73;nan;100126.44;4976525;28;20037;-77
2021/07/26 08:35:17;;;;;;;3.67;2.50;;;;;;;31.91;nan;100121.97;4966932;28;20130;-79
2021/07/26 08:37:42;;;;;;;3.53;2.22;;;;;;;32.15;nan;100126.44;4984907;28;20118;-78
2021/07/26 08:40:08;;;;;;;3.80;2.28;;;;;;;31.86;nan;100127.53;4979106;28;20138;-77
2021/07/26 08:42:33;;;;;;;5.22;2.50;;;;;;;31.62;nan;100122.25;4968200;28;20099;-79
2021/07/26 08:44:59;;;;;;;4.30;2.25;;;;;;;31.89;nan;100126.09;4965937;28;20031;-78
2021/07/26 08:47:27;;;;;;;4.93;2.55;;;;;;;31.37;nan;100119.97;4973119;28;20040;-77
2021/07/26 08:49:57;;;;;;;2.78;2.08;;;;;;;31.44;nan;100118.50;4966989;28;20035;-76
2021/07/26 08:52:25;;;;;;;3.17;2.33;;;;;;;30.78;nan;100109.44;4964875;28;20392;-77
2021/07/26 08:54:54;;;;;;;2.85;2.17;;;;;;;31.30;nan;100117.66;4973570;28;20038;-78
2021/07/26 08:57:20;;;;;;;4.68;2.28;;;;;;;31.65;nan;100113.44;4980307;28;20034;-78
2021/07/26 08:59:46;;;;;;;4.70;2.47;;;;;;;31.64;nan;100117.31;4973132;28;20045;-78
2021/07/26 09:02:11;;;;;;;3.55;2.50;;;;;;;31.93;nan;100113.47;4972539;28;20058;-76
2021/07/26 09:04:37;;;;;;;5.13;2.40;;;;;;;32.65;nan;100120.16;4963187;28;20539;-77
2021/07/26 09:07:07;;;;;;;3.60;2.20;;;;;;;32.71;nan;100127.94;4967420;28;20038;-78
2021/07/26 09:09:46;;;;;;;2.90;1.92;;;;;;;32.99;nan;100117.69;4963129;28;20062;-77
2021/07/26 09:12:31;;;;;;;3.75;2.08;;;;;;;32.96;nan;100112.81;4967302;28;20035;-79
2021/07/26 09:14:57;;;;;;;2.50;1.90;;;;;;;32.91;nan;100112.94;4979492;28;20130;-78
2021/07/26 09:17:22;;;;;;;3.33;1.90;;;;;;;33.33;nan;100115.50;4965051;28;20046;-78
2021/07/26 09:19:59;;;;;;;5.35;2.20;;;;;;;33.68;nan;100115.66;4977367;28;20504;-77
2021/07/26 09:22:36;;;;;;;3.05;2.10;;;;;;;33.12;nan;100115.22;4986827;28;22248;-77
2021/07/26 09:25:24;;;;;;;3.97;2.50;;;;;;;32.43;nan;100115.44;4963509;28;20038;-77
2021/07/26 09:28:01;;;;;;;2.58;2.00;;;;;;;31.92;nan;100118.13;4975403;28;20120;-78
2021/07/26 09:30:32;;;;;;;3.40;1.90;;;;;;;32.18;nan;100120.38;4975640;28;20041;-77
2021/07/26 09:33:00;;;;;;;3.47;2.10;;;;;;;32.20;nan;100109.91;4967501;28;20035;-76
2021/07/26 09:35:26;;;;;;;2.83;2.10;;;;;;;31.90;nan;100103.94;4962006;28;20095;-77
2021/07/26 09:38:02;;;;;;;3.50;2.30;;;;;;;32.11;nan;100111.75;4974145;28;20030;-78
2021/07/26 09:40:32;;;;;;;2.42;1.98;;;;;;;31.96;nan;100107.41;4987137;28;20062;-77
2021/07/26 09:43:17;;;;;;;3.45;2.25;;;;;;;31.09;nan;100100.78;4968003;28;20031;-76
2021/07/26 09:45:43;;;;;;;2.72;2.10;;;;;;;31.23;nan;100104.38;4971171;28;20045;-77
2021/07/26 09:48:10;;;;;;;3.72;2.10;;;;;;;31.12;nan;100116.56;4968364;28;20553;-77
2021/07/26 09:50:49;;;;;;;3.35;2.28;;;;;;;30.55;nan;100111.16;4967337;28;20118;-77
2021/07/26 09:53:17;;;;;;;2.63;1.95;;;;;;;30.45;nan;100111.31;4969838;28;20042;-77
2021/07/26 09:55:47;;;;;;;3.47;2.30;;;;;;;30.54;nan;100111.47;4970113;28;20408;-77
2021/07/26 09:58:15;;;;;;;4.10;2.10;;;;;;;30.43;nan;100108.88;4966343;28;20046;-77
2021/07/26 10:00:42;;;;;;;3.53;2.15;;;;;;;30.68;nan;100112.34;4968460;28;20034;-77
2021/07/26 10:03:11;;;;;;;4.45;2.40;;;;;;;30.72;nan;100112.56;4968337;28;20111;-76
2021/07/26 10:05:38;;;;;;;3.65;2.17;;;;;;;30.68;nan;100104.16;4960639;28;20031;-77
2021/07/26 10:08:05;;;;;;;2.90;1.83;;;;;;;30.38;nan;100099.97;4968204;28;20031;-76
2021/07/26 10:10:38;;;;;;;3.33;2.20;;;;;;;30.66;nan;100090.81;4965560;28;20570;-78
2021/07/26 10:13:04;;;;;;;3.95;2.25;;;;;;;30.88;nan;100103.06;4969873;28;20042;-77
2021/07/26 10:15:32;;;;;;;3.47;2.30;;;;;;;30.89;nan;100097.31;4972005;28;20027;-78
2021/07/26 10:17:58;;;;;;;4.18;2.28;;;;;;;30.96;nan;100098.81;4968941;28;20376;-77
2021/07/26 10:20:32;;;;;;;3.20;2.17;;;;;;;30.90;nan;100090.72;4976238;28;20046;-76
2021/07/26 10:23:12;;;;;;;5.03;2.58;;;;;;;31.01;nan;100096.84;4975923;28;20023;-77
2021/07/26 10:25:56;;;;;;;4.15;2.42;;;;;;;30.84;nan;100097.38;4984188;28;20039;-77
2021/07/26 10:28:31;;;;;;;3.38;2.55;;;;;;;30.62;nan;100097.16;4976766;28;20042;-76
2021/07/26 10:30:57;;;;;;;3.88;2.53;;;;;;;30.55;nan;100085.78;4980250;28;20131;-77
2021/07/26 10:33:23;;;;;;;4.15;2.33;;;;;;;30.49;nan;100085.06;4974211;28;20062;-76
2021/07/26 10:35:57;;;;;;;4.63;2.60;;;;;;;29.90;nan;100089.09;4983714;28;20062;-76
2021/07/26 10:38:42;;;;;;;4.53;2.40;;;;;;;29.53;nan;100075.06;4968880;28;20134;-77
2021/07/26 10:41:07;;;;;;;5.88;2.63;;;;;;;29.88;nan;100081.22;4970006;28;20145;-77
2021/07/26 10:44:28;;;;;;;3.25;2.10;;;;;;;30.06;nan;100087.81;4983411;28;20728;-77
2021/07/26 10:46:53;;;;;;;5.30;2.47;;;;;;;30.20;nan;100088.72;4985347;28;20093;-77
2021/07/26 10:49:19;;;;;;;2.73;2.20;;;;;;;30.21;nan;100081.34;4976167;28;20035;-77
2021/07/26 10:51:50;;;;;;;5.15;2.53;;;;;;;29.59;nan;100084.78;4984649;28;20384;-76
2021/07/26 10:54:32;;;;;;;4.10;2.25;;;;;;;29.23;nan;100083.53;4971772;28;20086;-77
2021/07/26 10:57:07;;;;;;;4.30;2.70;;;;;;;29.14;nan;100086.06;4967567;28;20081;-76
2021/07/26 11:00:10;;;;;;;3.58;2.60;;;;;;;29.23;nan;100084.34;4985080;28;20027;-76
2021/07/26 11:02:37;;;;;;;3.28;2.22;;;;;;;29.23;nan;100089.00;4978500;28;20142;-78
2021/07/26 11:05:25;;;;;;;3.70;2.60;;;;;;;29.42;nan;100081.72;4977024;28;20027;-76
2021/07/26 11:08:13;;;;;;;3.70;2.40;;;;;;;29.36;nan;100078.22;4976669;28;20069;-77
2021/07/26 11:10:41;;;;;;;4.25;2.78;;;;;;;29.21;nan;100081.91;4977516;28;20451;-77
2021/07/26 11:13:06;;;;;;;4.40;2.45;;;;;;;29.11;nan;100084.72;4990496;28;20069;-75
2021/07/26 11:15:46;;;;;;;4.47;2.72;;;;;;;29.29;nan;100060.59;4979686;28;20098;-76
2021/07/26 11:18:14;;;;;;;4.00;2.63;;;;;;;28.82;nan;100065.63;4975793;28;20035;-76
2021/07/26 11:20:56;;;;;;;4.13;2.72;;;;;;;28.70;nan;100067.88;4976522;28;20026;-75
2021/07/26 11:23:46;;;;;;;4.53;2.85;;;;;;;28.68;nan;100062.75;4973366;28;20566;-76
2021/07/26 11:26:26;;;;;;;3.60;2.47;;;;;;;28.99;nan;100071.47;4968033;28;20069;-76
2021/07/26 11:28:56;;;;;;;3.70;2.30;;;;;;;28.95;nan;100055.97;4973808;28;20142;-76
2021/07/26 11:31:38;;;;;;;3.65;2.10;;;;;;;29.21;nan;100054.66;4966698;28;20034;-75
2021/07/26 11:34:08;;;;;;;3.80;2.30;;;;;;;29.51;nan;100050.03;4975171;28;20118;-76
2021/07/26 11:36:34;;;;;;;4.25;2.67;;;;;;;29.95;nan;100045.41;4973947;28;20037;-75
2021/07/26 11:39:03;;;;;;;3.55;2.25;;;;;;;30.20;nan;100047.81;4973412;28;20031;-75
2021/07/26 11:41:29;;;;;;;3.15;2.03;;;;;;;30.50;nan;100045.75;4965972;28;20081;-76
2021/07/26 11:43:55;;;;;;;3.22;2.33;;;;;;;30.45;nan;100035.72;4971782;28;20039;-76
2021/07/26 11:46:22;;;;;;;4.05;2.50;;;;;;;29.89;nan;100039.25;4963285;28;20118;-76
2021/07/26 11:48:58;;;;;;;3.72;2.30;;;;;;;29.51;nan;100041.84;4978536;28;20038;-76